sensor_id;sensor_type;location;lat;lon;timestamp;P1;durP1;ratioP1;P2;durP2;ratioP2
22935;SDS011;11633;42.716;23.312;2023-04-01T00:00:45;18.25;;;10.68;;
22935;SDS011;11633;42.716;23.312;2023-04-01T00:03:10;20.60;;;10.43;;
22935;SDS011;11633;42.716;23.312;2023-04-01T00:05:36;20.50;;;11.20;;
22935;SDS011;11633;42.716;23.312;2023-04-01T00:08:02;17.60;;;9.90;;
22935;SDS011;11633;42.716;23.312;2023-04-01T00:10:27;18.65;;;10.27;;
22935;SDS011;11633;42.716;23.312;2023-04-01T00:12:52;15.55;;;9.75;;
22935;SDS011;11633;42.716;23.312;2023-04-01T00:15:18;17.17;;;9.02;;
22935;SDS011;11633;42.716;23.312;2023-04-01T00:17:43;18.02;;;9.40;;
22935;SDS011;11633;42.716;23.312;2023-04-01T00:20:08;12.25;;;9.05;;
22935;SDS011;11633;42.716;23.312;2023-04-01T00:22:34;13.55;;;8.82;;
22935;SDS011;11633;42.716;23.312;2023-04-01T00:25:00;15.73;;;8.88;;
22935;SDS011;11633;42.716;23.312;2023-04-01T00:27:25;15.07;;;9.32;;
22935;SDS011;11633;42.716;23.312;2023-04-01T00:29:51;19.40;;;9.85;;
22935;SDS011;11633;42.716;23.312;2023-04-01T00:32:16;17.23;;;9.20;;
22935;SDS011;11633;42.716;23.312;2023-04-01T00:34:41;17.85;;;9.75;;
22935;SDS011;11633;42.716;23.312;2023-04-01T00:37:07;17.15;;;9.98;;
22935;SDS011;11633;42.716;23.312;2023-04-01T00:39:33;17.30;;;9.02;;
22935;SDS011;11633;42.716;23.312;2023-04-01T00:41:59;14.82;;;8.25;;
22935;SDS011;11633;42.716;23.312;2023-04-01T00:44:25;14.40;;;8.73;;
22935;SDS011;11633;42.716;23.312;2023-04-01T00:46:51;15.95;;;9.35;;
22935;SDS011;11633;42.716;23.312;2023-04-01T00:49:21;16.65;;;9.30;;
22935;SDS011;11633;42.716;23.312;2023-04-01T00:51:47;15.23;;;8.63;;
22935;SDS011;11633;42.716;23.312;2023-04-01T00:54:13;13.27;;;8.57;;
22935;SDS011;11633;42.716;23.312;2023-04-01T00:56:46;16.45;;;9.13;;
22935;SDS011;11633;42.716;23.312;2023-04-01T00:59:17;12.27;;;7.80;;
22935;SDS011;11633;42.716;23.312;2023-04-01T01:01:44;16.92;;;8.25;;
22935;SDS011;11633;42.716;23.312;2023-04-01T01:04:23;14.98;;;7.55;;
22935;SDS011;11633;42.716;23.312;2023-04-01T01:09:55;12.32;;;6.78;;
22935;SDS011;11633;42.716;23.312;2023-04-01T01:15:06;9.25;;;6.60;;
22935;SDS011;11633;42.716;23.312;2023-04-01T01:23:30;11.52;;;7.05;;
22935;SDS011;11633;42.716;23.312;2023-04-01T01:31:20;11.98;;;6.95;;
22935;SDS011;11633;42.716;23.312;2023-04-01T01:33:52;14.00;;;7.60;;
22935;SDS011;11633;42.716;23.312;2023-04-01T01:36:25;13.90;;;7.25;;
22935;SDS011;11633;42.716;23.312;2023-04-01T01:38:51;13.13;;;6.93;;
22935;SDS011;11633;42.716;23.312;2023-04-01T01:41:17;15.32;;;7.55;;
22935;SDS011;11633;42.716;23.312;2023-04-01T01:43:44;10.38;;;7.35;;
22935;SDS011;11633;42.716;23.312;2023-04-01T01:46:16;12.82;;;7.15;;
22935;SDS011;11633;42.716;23.312;2023-04-01T01:48:42;8.85;;;6.75;;
22935;SDS011;11633;42.716;23.312;2023-04-01T01:51:08;13.45;;;6.97;;
22935;SDS011;11633;42.716;23.312;2023-04-01T01:53:34;10.32;;;6.60;;
22935;SDS011;11633;42.716;23.312;2023-04-01T01:55:59;11.18;;;6.97;;
22935;SDS011;11633;42.716;23.312;2023-04-01T02:00:57;11.32;;;6.78;;
22935;SDS011;11633;42.716;23.312;2023-04-01T02:03:24;15.90;;;8.00;;
22935;SDS011;11633;42.716;23.312;2023-04-01T02:05:50;15.07;;;7.70;;
22935;SDS011;11633;42.716;23.312;2023-04-01T02:08:18;11.98;;;7.57;;
22935;SDS011;11633;42.716;23.312;2023-04-01T02:10:56;14.63;;;8.23;;
22935;SDS011;11633;42.716;23.312;2023-04-01T02:13:23;13.27;;;8.05;;
22935;SDS011;11633;42.716;23.312;2023-04-01T02:15:50;15.43;;;8.93;;
22935;SDS011;11633;42.716;23.312;2023-04-01T02:18:20;14.18;;;7.60;;
22935;SDS011;11633;42.716;23.312;2023-04-01T02:20:46;11.98;;;7.70;;
22935;SDS011;11633;42.716;23.312;2023-04-01T02:23:11;10.80;;;7.20;;
22935;SDS011;11633;42.716;23.312;2023-04-01T02:25:37;10.73;;;7.28;;
22935;SDS011;11633;42.716;23.312;2023-04-01T02:28:04;16.65;;;6.57;;
22935;SDS011;11633;42.716;23.312;2023-04-01T02:30:29;11.88;;;7.07;;
22935;SDS011;11633;42.716;23.312;2023-04-01T02:32:57;12.80;;;8.18;;
22935;SDS011;11633;42.716;23.312;2023-04-01T02:35:23;11.18;;;6.95;;
22935;SDS011;11633;42.716;23.312;2023-04-01T02:37:48;14.32;;;7.43;;
22935;SDS011;11633;42.716;23.312;2023-04-01T02:40:14;21.17;;;8.05;;
22935;SDS011;11633;42.716;23.312;2023-04-01T02:42:40;11.77;;;7.82;;
22935;SDS011;11633;42.716;23.312;2023-04-01T02:45:05;9.68;;;6.93;;
22935;SDS011;11633;42.716;23.312;2023-04-01T02:47:30;12.95;;;7.95;;
22935;SDS011;11633;42.716;23.312;2023-04-01T02:49:56;13.88;;;7.82;;
22935;SDS011;11633;42.716;23.312;2023-04-01T02:52:24;16.33;;;8.65;;
22935;SDS011;11633;42.716;23.312;2023-04-01T02:54:49;13.10;;;8.02;;
22935;SDS011;11633;42.716;23.312;2023-04-01T02:57:14;15.20;;;8.02;;
22935;SDS011;11633;42.716;23.312;2023-04-01T02:59:40;14.68;;;8.70;;
22935;SDS011;11633;42.716;23.312;2023-04-01T03:02:05;15.00;;;8.48;;
22935;SDS011;11633;42.716;23.312;2023-04-01T03:04:31;13.40;;;8.27;;
22935;SDS011;11633;42.716;23.312;2023-04-01T03:06:57;11.50;;;7.65;;
22935;SDS011;11633;42.716;23.312;2023-04-01T03:09:22;13.63;;;9.13;;
22935;SDS011;11633;42.716;23.312;2023-04-01T03:11:47;43.42;;;26.98;;
22935;SDS011;11633;42.716;23.312;2023-04-01T03:14:12;16.67;;;10.27;;
22935;SDS011;11633;42.716;23.312;2023-04-01T03:16:38;16.30;;;9.05;;
22935;SDS011;11633;42.716;23.312;2023-04-01T03:19:03;16.88;;;10.15;;
22935;SDS011;11633;42.716;23.312;2023-04-01T03:21:28;17.45;;;9.32;;
22935;SDS011;11633;42.716;23.312;2023-04-01T03:23:53;12.77;;;8.85;;
22935;SDS011;11633;42.716;23.312;2023-04-01T03:26:19;18.65;;;9.40;;
22935;SDS011;11633;42.716;23.312;2023-04-01T03:28:44;17.02;;;9.10;;
22935;SDS011;11633;42.716;23.312;2023-04-01T03:31:10;13.95;;;8.90;;
22935;SDS011;11633;42.716;23.312;2023-04-01T03:33:35;16.90;;;8.80;;
22935;SDS011;11633;42.716;23.312;2023-04-01T03:36:01;13.15;;;7.97;;
22935;SDS011;11633;42.716;23.312;2023-04-01T03:38:26;14.75;;;8.18;;
22935;SDS011;11633;42.716;23.312;2023-04-01T03:40:51;12.38;;;7.35;;
22935;SDS011;11633;42.716;23.312;2023-04-01T03:43:16;10.20;;;7.72;;
22935;SDS011;11633;42.716;23.312;2023-04-01T03:45:45;13.38;;;8.65;;
22935;SDS011;11633;42.716;23.312;2023-04-01T03:48:12;13.23;;;8.15;;
22935;SDS011;11633;42.716;23.312;2023-04-01T03:50:37;14.70;;;8.10;;
22935;SDS011;11633;42.716;23.312;2023-04-01T03:53:02;12.63;;;7.68;;
22935;SDS011;11633;42.716;23.312;2023-04-01T03:55:27;12.35;;;8.18;;
22935;SDS011;11633;42.716;23.312;2023-04-01T03:57:53;15.45;;;9.48;;
22935;SDS011;11633;42.716;23.312;2023-04-01T04:00:18;13.68;;;9.45;;
22935;SDS011;11633;42.716;23.312;2023-04-01T04:02:44;14.00;;;8.55;;
22935;SDS011;11633;42.716;23.312;2023-04-01T04:05:09;14.82;;;8.32;;
22935;SDS011;11633;42.716;23.312;2023-04-01T04:07:34;15.82;;;8.05;;
22935;SDS011;11633;42.716;23.312;2023-04-01T04:10:00;12.57;;;7.78;;
22935;SDS011;11633;42.716;23.312;2023-04-01T04:12:25;13.60;;;7.25;;
22935;SDS011;11633;42.716;23.312;2023-04-01T04:14:50;12.02;;;6.35;;
22935;SDS011;11633;42.716;23.312;2023-04-01T04:17:16;13.32;;;7.80;;
22935;SDS011;11633;42.716;23.312;2023-04-01T04:19:41;12.73;;;8.20;;
22935;SDS011;11633;42.716;23.312;2023-04-01T04:22:06;11.57;;;7.20;;
22935;SDS011;11633;42.716;23.312;2023-04-01T04:24:33;11.43;;;6.43;;
22935;SDS011;11633;42.716;23.312;2023-04-01T04:26:58;14.95;;;7.78;;
22935;SDS011;11633;42.716;23.312;2023-04-01T04:29:24;15.73;;;7.82;;
22935;SDS011;11633;42.716;23.312;2023-04-01T04:31:49;9.30;;;7.10;;
22935;SDS011;11633;42.716;23.312;2023-04-01T04:34:14;13.55;;;7.43;;
22935;SDS011;11633;42.716;23.312;2023-04-01T04:36:40;12.05;;;7.13;;
22935;SDS011;11633;42.716;23.312;2023-04-01T04:39:05;9.40;;;6.45;;
22935;SDS011;11633;42.716;23.312;2023-04-01T04:41:30;14.48;;;8.57;;
22935;SDS011;11633;42.716;23.312;2023-04-01T04:43:56;15.77;;;7.20;;
22935;SDS011;11633;42.716;23.312;2023-04-01T04:46:22;13.20;;;7.90;;
22935;SDS011;11633;42.716;23.312;2023-04-01T04:48:47;11.73;;;7.78;;
22935;SDS011;11633;42.716;23.312;2023-04-01T04:51:14;13.65;;;6.38;;
22935;SDS011;11633;42.716;23.312;2023-04-01T04:53:40;12.57;;;7.35;;
22935;SDS011;11633;42.716;23.312;2023-04-01T04:56:05;11.85;;;5.93;;
22935;SDS011;11633;42.716;23.312;2023-04-01T04:58:31;18.30;;;6.40;;
22935;SDS011;11633;42.716;23.312;2023-04-01T05:00:56;16.88;;;7.32;;
22935;SDS011;11633;42.716;23.312;2023-04-01T05:03:22;17.23;;;10.13;;
22935;SDS011;11633;42.716;23.312;2023-04-01T05:05:48;15.88;;;7.10;;
22935;SDS011;11633;42.716;23.312;2023-04-01T05:08:13;15.15;;;7.88;;
22935;SDS011;11633;42.716;23.312;2023-04-01T05:10:38;12.80;;;7.40;;
22935;SDS011;11633;42.716;23.312;2023-04-01T05:13:04;13.35;;;8.40;;
22935;SDS011;11633;42.716;23.312;2023-04-01T05:15:29;12.45;;;7.40;;
22935;SDS011;11633;42.716;23.312;2023-04-01T05:17:54;12.15;;;6.88;;
22935;SDS011;11633;42.716;23.312;2023-04-01T05:20:19;11.57;;;7.65;;
22935;SDS011;11633;42.716;23.312;2023-04-01T05:22:45;12.18;;;7.10;;
22935;SDS011;11633;42.716;23.312;2023-04-01T05:25:10;11.20;;;6.85;;
22935;SDS011;11633;42.716;23.312;2023-04-01T05:27:35;11.27;;;7.13;;
22935;SDS011;11633;42.716;23.312;2023-04-01T05:30:00;10.25;;;6.53;;
22935;SDS011;11633;42.716;23.312;2023-04-01T05:32:26;12.05;;;7.32;;
22935;SDS011;11633;42.716;23.312;2023-04-01T05:34:51;15.25;;;7.22;;
22935;SDS011;11633;42.716;23.312;2023-04-01T05:37:17;15.32;;;7.93;;
22935;SDS011;11633;42.716;23.312;2023-04-01T05:39:42;11.10;;;6.25;;
22935;SDS011;11633;42.716;23.312;2023-04-01T05:42:07;15.48;;;8.40;;
22935;SDS011;11633;42.716;23.312;2023-04-01T05:44:33;15.27;;;7.45;;
22935;SDS011;11633;42.716;23.312;2023-04-01T05:46:58;9.63;;;6.70;;
22935;SDS011;11633;42.716;23.312;2023-04-01T05:49:24;9.63;;;5.60;;
22935;SDS011;11633;42.716;23.312;2023-04-01T05:51:49;10.50;;;6.05;;
22935;SDS011;11633;42.716;23.312;2023-04-01T05:54:16;10.23;;;5.35;;
22935;SDS011;11633;42.716;23.312;2023-04-01T05:56:41;9.70;;;4.20;;
22935;SDS011;11633;42.716;23.312;2023-04-01T05:59:06;8.98;;;4.75;;
22935;SDS011;11633;42.716;23.312;2023-04-01T06:01:31;5.70;;;4.05;;
22935;SDS011;11633;42.716;23.312;2023-04-01T06:03:57;6.13;;;3.90;;
22935;SDS011;11633;42.716;23.312;2023-04-01T06:06:26;9.07;;;3.95;;
22935;SDS011;11633;42.716;23.312;2023-04-01T06:08:52;9.10;;;4.38;;
22935;SDS011;11633;42.716;23.312;2023-04-01T06:14:10;11.00;;;5.97;;
22935;SDS011;11633;42.716;23.312;2023-04-01T06:50:11;3.80;;;2.80;;
22935;SDS011;11633;42.716;23.312;2023-04-01T06:57:57;7.15;;;3.20;;
22935;SDS011;11633;42.716;23.312;2023-04-01T07:03:05;7.07;;;3.10;;
22935;SDS011;11633;42.716;23.312;2023-04-01T07:05:32;6.53;;;3.80;;
22935;SDS011;11633;42.716;23.312;2023-04-01T07:07:59;4.60;;;2.80;;
22935;SDS011;11633;42.716;23.312;2023-04-01T07:13:20;6.15;;;3.10;;
22935;SDS011;11633;42.716;23.312;2023-04-01T07:16:32;5.57;;;2.92;;
22935;SDS011;11633;42.716;23.312;2023-04-01T07:18:34;9.13;;;3.33;;
22935;SDS011;11633;42.716;23.312;2023-04-01T07:21:02;5.07;;;3.25;;
22935;SDS011;11633;42.716;23.312;2023-04-01T07:23:36;6.53;;;3.42;;
22935;SDS011;11633;42.716;23.312;2023-04-01T07:26:15;5.53;;;3.42;;
22935;SDS011;11633;42.716;23.312;2023-04-01T07:28:41;6.47;;;3.85;;
22935;SDS011;11633;42.716;23.312;2023-04-01T07:36:38;5.90;;;3.35;;
22935;SDS011;11633;42.716;23.312;2023-04-01T07:41:50;6.72;;;3.80;;
22935;SDS011;11633;42.716;23.312;2023-04-01T07:47:05;6.13;;;3.40;;
22935;SDS011;11633;42.716;23.312;2023-04-01T07:52:23;11.38;;;4.22;;
22935;SDS011;11633;42.716;23.312;2023-04-01T07:55:33;7.07;;;3.75;;
22935;SDS011;11633;42.716;23.312;2023-04-01T08:00:20;3.88;;;3.15;;
22935;SDS011;11633;42.716;23.312;2023-04-01T08:02:54;6.38;;;3.40;;
22935;SDS011;11633;42.716;23.312;2023-04-01T08:05:29;3.42;;;3.00;;
22935;SDS011;11633;42.716;23.312;2023-04-01T08:10:34;8.07;;;3.00;;
22935;SDS011;11633;42.716;23.312;2023-04-01T08:13:20;7.68;;;3.65;;
22935;SDS011;11633;42.716;23.312;2023-04-01T08:20:50;6.70;;;3.35;;
22935;SDS011;11633;42.716;23.312;2023-04-01T08:23:17;5.97;;;3.35;;
22935;SDS011;11633;42.716;23.312;2023-04-01T08:25:46;7.80;;;3.03;;
22935;SDS011;11633;42.716;23.312;2023-04-01T08:28:15;4.93;;;2.70;;
22935;SDS011;11633;42.716;23.312;2023-04-01T08:30:49;10.27;;;2.80;;
22935;SDS011;11633;42.716;23.312;2023-04-01T08:38:17;3.95;;;2.42;;
22935;SDS011;11633;42.716;23.312;2023-04-01T08:48:39;7.05;;;2.97;;
22935;SDS011;11633;42.716;23.312;2023-04-01T08:54:29;5.93;;;2.33;;
22935;SDS011;11633;42.716;23.312;2023-04-01T09:01:58;4.90;;;2.65;;
22935;SDS011;11633;42.716;23.312;2023-04-01T09:10:04;4.53;;;1.92;;
22935;SDS011;11633;42.716;23.312;2023-04-01T09:32:48;3.15;;;1.77;;
22935;SDS011;11633;42.716;23.312;2023-04-01T09:51:48;6.60;;;2.78;;
22935;SDS011;11633;42.716;23.312;2023-04-01T09:54:24;3.75;;;1.58;;
22935;SDS011;11633;42.716;23.312;2023-04-01T09:57:07;5.60;;;2.92;;
22935;SDS011;11633;42.716;23.312;2023-04-01T10:25:55;3.80;;;1.40;;
22935;SDS011;11633;42.716;23.312;2023-04-01T11:30:02;5.65;;;2.20;;
22935;SDS011;11633;42.716;23.312;2023-04-01T11:35:25;4.88;;;2.35;;
22935;SDS011;11633;42.716;23.312;2023-04-01T11:38:00;3.70;;;2.50;;
22935;SDS011;11633;42.716;23.312;2023-04-01T11:43:15;4.15;;;1.83;;
22935;SDS011;11633;42.716;23.312;2023-04-01T12:01:30;4.05;;;1.95;;
22935;SDS011;11633;42.716;23.312;2023-04-01T12:19:34;4.20;;;2.30;;
22935;SDS011;11633;42.716;23.312;2023-04-01T12:21:59;3.22;;;2.42;;
22935;SDS011;11633;42.716;23.312;2023-04-01T12:24:39;4.45;;;2.50;;
22935;SDS011;11633;42.716;23.312;2023-04-01T12:45:02;4.68;;;2.28;;
22935;SDS011;11633;42.716;23.312;2023-04-01T12:50:41;7.20;;;2.47;;
22935;SDS011;11633;42.716;23.312;2023-04-01T12:55:52;3.92;;;2.22;;
22935;SDS011;11633;42.716;23.312;2023-04-01T13:08:38;2.78;;;2.00;;
22935;SDS011;11633;42.716;23.312;2023-04-01T13:16:18;6.25;;;2.15;;
22935;SDS011;11633;42.716;23.312;2023-04-01T13:18:57;6.18;;;2.67;;
22935;SDS011;11633;42.716;23.312;2023-04-01T13:29:31;6.28;;;3.20;;
22935;SDS011;11633;42.716;23.312;2023-04-01T13:55:04;3.85;;;1.00;;
22935;SDS011;11633;42.716;23.312;2023-04-01T13:57:42;3.60;;;1.40;;
22935;SDS011;11633;42.716;23.312;2023-04-01T14:05:08;1.17;;;1.00;;
22935;SDS011;11633;42.716;23.312;2023-04-01T14:10:14;1.98;;;1.10;;
22935;SDS011;11633;42.716;23.312;2023-04-01T14:20:26;21.67;;;11.38;;
22935;SDS011;11633;42.716;23.312;2023-04-01T14:25:44;7.30;;;3.80;;
22935;SDS011;11633;42.716;23.312;2023-04-01T14:36:01;5.25;;;2.75;;
22935;SDS011;11633;42.716;23.312;2023-04-01T14:48:49;3.42;;;2.13;;
22935;SDS011;11633;42.716;23.312;2023-04-01T14:51:16;3.92;;;1.65;;
22935;SDS011;11633;42.716;23.312;2023-04-01T14:53:53;4.07;;;2.35;;
22935;SDS011;11633;42.716;23.312;2023-04-01T15:02:15;3.35;;;2.00;;
22935;SDS011;11633;42.716;23.312;2023-04-01T15:07:21;3.35;;;2.17;;
22935;SDS011;11633;42.716;23.312;2023-04-01T15:12:46;7.25;;;3.60;;
22935;SDS011;11633;42.716;23.312;2023-04-01T15:43:54;3.35;;;1.85;;
22935;SDS011;11633;42.716;23.312;2023-04-01T15:46:30;3.70;;;1.98;;
22935;SDS011;11633;42.716;23.312;2023-04-01T15:51:41;3.15;;;1.30;;
22935;SDS011;11633;42.716;23.312;2023-04-01T15:59:49;1.48;;;1.38;;
22935;SDS011;11633;42.716;23.312;2023-04-01T16:12:28;2.83;;;2.55;;
22935;SDS011;11633;42.716;23.312;2023-04-01T16:17:54;4.15;;;3.20;;
22935;SDS011;11633;42.716;23.312;2023-04-01T16:20:35;3.72;;;2.45;;
22935;SDS011;11633;42.716;23.312;2023-04-01T16:23:14;4.45;;;2.90;;
22935;SDS011;11633;42.716;23.312;2023-04-01T16:25:49;3.40;;;2.65;;
22935;SDS011;11633;42.716;23.312;2023-04-01T16:38:45;2.67;;;2.15;;
22935;SDS011;11633;42.716;23.312;2023-04-01T16:41:29;2.67;;;2.30;;
22935;SDS011;11633;42.716;23.312;2023-04-01T16:43:56;2.10;;;1.90;;
22935;SDS011;11633;42.716;23.312;2023-04-01T16:46:38;2.28;;;1.90;;
22935;SDS011;11633;42.716;23.312;2023-04-01T16:49:14;2.92;;;2.08;;
22935;SDS011;11633;42.716;23.312;2023-04-01T16:54:26;1.77;;;1.67;;
22935;SDS011;11633;42.716;23.312;2023-04-01T16:59:37;1.58;;;1.40;;
22935;SDS011;11633;42.716;23.312;2023-04-01T17:02:04;2.53;;;1.38;;
22935;SDS011;11633;42.716;23.312;2023-04-01T17:12:25;1.70;;;1.40;;
22935;SDS011;11633;42.716;23.312;2023-04-01T17:18:23;1.30;;;1.10;;
22935;SDS011;11633;42.716;23.312;2023-04-01T17:20:33;1.50;;;1.40;;
22935;SDS011;11633;42.716;23.312;2023-04-01T17:28:18;1.20;;;1.10;;
22935;SDS011;11633;42.716;23.312;2023-04-01T17:30:55;1.52;;;1.33;;
22935;SDS011;11633;42.716;23.312;2023-04-01T17:33:39;1.63;;;1.10;;
22935;SDS011;11633;42.716;23.312;2023-04-01T17:38:50;1.58;;;1.48;;
22935;SDS011;11633;42.716;23.312;2023-04-01T17:41:32;1.42;;;1.33;;
22935;SDS011;11633;42.716;23.312;2023-04-01T17:47:05;2.42;;;1.73;;
22935;SDS011;11633;42.716;23.312;2023-04-01T17:49:33;1.88;;;1.77;;
22935;SDS011;11633;42.716;23.312;2023-04-01T17:52:04;2.30;;;2.10;;
22935;SDS011;11633;42.716;23.312;2023-04-01T17:57:14;3.75;;;2.88;;
22935;SDS011;11633;42.716;23.312;2023-04-01T17:59:50;2.63;;;2.42;;
22935;SDS011;11633;42.716;23.312;2023-04-01T18:07:35;2.30;;;2.10;;
22935;SDS011;11633;42.716;23.312;2023-04-01T18:10:23;2.75;;;2.55;;
22935;SDS011;11633;42.716;23.312;2023-04-01T18:15:45;2.85;;;2.45;;
22935;SDS011;11633;42.716;23.312;2023-04-01T18:23:30;2.75;;;2.30;;
22935;SDS011;11633;42.716;23.312;2023-04-01T18:26:05;1.77;;;1.67;;
22935;SDS011;11633;42.716;23.312;2023-04-01T18:28:42;2.35;;;1.70;;
22935;SDS011;11633;42.716;23.312;2023-04-01T18:31:11;2.15;;;2.00;;
22935;SDS011;11633;42.716;23.312;2023-04-01T18:33:43;2.00;;;1.80;;
22935;SDS011;11633;42.716;23.312;2023-04-01T18:38:39;1.75;;;1.65;;
22935;SDS011;11633;42.716;23.312;2023-04-01T18:53:41;1.90;;;1.67;;
22935;SDS011;11633;42.716;23.312;2023-04-01T18:56:11;2.20;;;2.00;;
22935;SDS011;11633;42.716;23.312;2023-04-01T19:06:15;4.03;;;3.63;;
22935;SDS011;11633;42.716;23.312;2023-04-01T19:08:42;6.22;;;4.00;;
22935;SDS011;11633;42.716;23.312;2023-04-01T19:11:10;2.92;;;2.58;;
22935;SDS011;11633;42.716;23.312;2023-04-01T19:21:35;2.20;;;2.00;;
22935;SDS011;11633;42.716;23.312;2023-04-01T19:29:31;2.15;;;1.73;;
22935;SDS011;11633;42.716;23.312;2023-04-01T19:45:02;3.08;;;2.35;;
22935;SDS011;11633;42.716;23.312;2023-04-01T19:47:39;1.20;;;1.10;;
22935;SDS011;11633;42.716;23.312;2023-04-01T19:50:23;1.05;;;0.95;;
22935;SDS011;11633;42.716;23.312;2023-04-01T19:52:50;1.67;;;1.08;;
22935;SDS011;11633;42.716;23.312;2023-04-01T19:55:26;1.27;;;1.17;;
22935;SDS011;11633;42.716;23.312;2023-04-01T20:01:03;1.02;;;0.88;;
22935;SDS011;11633;42.716;23.312;2023-04-01T20:06:18;1.10;;;1.00;;
22935;SDS011;11633;42.716;23.312;2023-04-01T20:08:49;0.80;;;0.80;;
22935;SDS011;11633;42.716;23.312;2023-04-01T20:14:04;1.13;;;0.90;;
22935;SDS011;11633;42.716;23.312;2023-04-01T20:16:54;2.13;;;1.20;;
22935;SDS011;11633;42.716;23.312;2023-04-01T20:19:28;0.80;;;0.80;;
22935;SDS011;11633;42.716;23.312;2023-04-01T20:21:56;1.15;;;0.98;;
22935;SDS011;11633;42.716;23.312;2023-04-01T20:29:40;1.13;;;0.80;;
22935;SDS011;11633;42.716;23.312;2023-04-01T20:37:29;1.73;;;1.10;;
22935;SDS011;11633;42.716;23.312;2023-04-01T20:50:45;2.22;;;1.15;;
22935;SDS011;11633;42.716;23.312;2023-04-01T20:53:29;1.15;;;1.05;;
22935;SDS011;11633;42.716;23.312;2023-04-01T21:11:51;1.33;;;0.85;;
22935;SDS011;11633;42.716;23.312;2023-04-01T21:16:47;0.95;;;0.82;;
22935;SDS011;11633;42.716;23.312;2023-04-01T21:19:49;0.70;;;0.70;;
22935;SDS011;11633;42.716;23.312;2023-04-01T21:42:48;1.23;;;0.90;;
22935;SDS011;11633;42.716;23.312;2023-04-01T22:01:10;0.63;;;0.60;;
22935;SDS011;11633;42.716;23.312;2023-04-01T22:11:44;2.80;;;1.60;;
22935;SDS011;11633;42.716;23.312;2023-04-01T22:16:58;1.52;;;1.38;;
22935;SDS011;11633;42.716;23.312;2023-04-01T22:19:42;2.85;;;1.33;;
22935;SDS011;11633;42.716;23.312;2023-04-01T22:22:21;3.13;;;2.17;;
22935;SDS011;11633;42.716;23.312;2023-04-01T22:32:46;2.95;;;1.92;;
22935;SDS011;11633;42.716;23.312;2023-04-01T22:40:22;2.28;;;1.70;;
22935;SDS011;11633;42.716;23.312;2023-04-01T22:48:42;1.70;;;1.35;;
22935;SDS011;11633;42.716;23.312;2023-04-01T22:55:50;3.00;;;1.20;;
22935;SDS011;11633;42.716;23.312;2023-04-01T22:58:17;1.13;;;1.02;;
22935;SDS011;11633;42.716;23.312;2023-04-01T23:00:48;1.23;;;0.77;;
22935;SDS011;11633;42.716;23.312;2023-04-01T23:05:55;0.93;;;0.70;;
22935;SDS011;11633;42.716;23.312;2023-04-01T23:11:04;1.05;;;0.68;;
22935;SDS011;11633;42.716;23.312;2023-04-01T23:13:32;1.42;;;0.60;;
22935;SDS011;11633;42.716;23.312;2023-04-01T23:15:59;1.77;;;0.80;;
22935;SDS011;11633;42.716;23.312;2023-04-01T23:18:27;1.08;;;0.88;;
22935;SDS011;11633;42.716;23.312;2023-04-01T23:23:39;1.58;;;0.68;;
22935;SDS011;11633;42.716;23.312;2023-04-01T23:27:08;1.52;;;0.40;;
22935;SDS011;11633;42.716;23.312;2023-04-01T23:29:00;2.05;;;0.50;;
22935;SDS011;11633;42.716;23.312;2023-04-01T23:34:20;1.35;;;0.55;;
22935;SDS011;11633;42.716;23.312;2023-04-01T23:36:44;1.17;;;0.70;;
22935;SDS011;11633;42.716;23.312;2023-04-01T23:39:21;1.05;;;0.50;;
22935;SDS011;11633;42.716;23.312;2023-04-01T23:41:47;1.63;;;0.60;;
22935;SDS011;11633;42.716;23.312;2023-04-01T23:44:13;1.13;;;0.55;;
22935;SDS011;11633;42.716;23.312;2023-04-01T23:46:39;2.50;;;0.43;;
22935;SDS011;11633;42.716;23.312;2023-04-01T23:49:05;0.98;;;0.63;;
22935;SDS011;11633;42.716;23.312;2023-04-01T23:51:38;3.22;;;0.80;;
22935;SDS011;11633;42.716;23.312;2023-04-01T23:56:40;1.00;;;0.60;;
22935;SDS011;11633;42.716;23.312;2023-04-01T23:59:09;2.10;;;0.45;;
